Time;durP1;ratioP1;P1;durP2;ratioP2;P2;SDS_P1;SDS_P2;PMS_P1;PMS_P2;Temp;Humidity;BMP_temperature;BMP_pressure;BME280_temperature;BME280_humidity;BME280_pressure;Samples;Min_cycle;Max_cycle;Signal;HPM_P1;HPM_P2
2021/03/24 00:01:26;;;;;;;60.90;32.17;;;;;;;;;;5050623;28;20179;-78
2021/03/24 00:03:52;;;;;;;61.07;31.27;;;;;;;;;;5033683;28;20281;-77
2021/03/24 00:06:18;;;;;;;60.67;32.07;;;;;;;;;;5050568;28;20227;-77
2021/03/24 00:08:44;;;;;;;60.93;31.50;;;;;;;;;;5050325;28;20177;-77
2021/03/24 00:11:10;;;;;;;62.70;32.33;;;;;;;;;;5033834;28;20188;-77
2021/03/24 00:13:36;;;;;;;61.07;32.63;;;;;;;;;;5050074;28;20209;-77
2021/03/24 00:16:02;;;;;;;61.47;31.07;;;;;;;;;;5034318;28;20193;-76
2021/03/24 00:18:29;;;;;;;57.40;30.33;;;;;;;;;;5033069;28;20216;-77
2021/03/24 00:20:55;;;;;;;60.00;31.17;;;;;;;;;;5033915;28;20185;-78
2021/03/24 00:23:21;;;;;;;57.77;31.47;;;;;;;;;;5033934;28;20206;-77
2021/03/24 00:25:47;;;;;;;64.50;31.93;;;;;;;;;;5033591;28;20213;-77
2021/03/24 00:28:13;;;;;;;65.33;32.40;;;;;;;;;;5033426;28;20171;-77
2021/03/24 00:30:40;;;;;;;62.50;30.20;;;;;;;;;;5049063;28;20185;-78
2021/03/24 00:33:07;;;;;;;69.20;31.97;;;;;;;;;;5048908;28;20306;-77
2021/03/24 00:35:33;;;;;;;62.50;31.83;;;;;;;;;;5049262;28;20178;-77
2021/03/24 00:37:59;;;;;;;61.83;30.93;;;;;;;;;;5033461;28;20203;-77
2021/03/24 00:40:26;;;;;;;63.60;31.53;;;;;;;;;;5048612;28;20182;-77
2021/03/24 00:42:52;;;;;;;63.37;31.57;;;;;;;;;;5048732;28;20212;-76
2021/03/24 00:45:19;;;;;;;65.83;32.77;;;;;;;;;;5031714;28;20583;-76
2021/03/24 00:47:45;;;;;;;65.53;32.00;;;;;;;;;;5031769;28;20172;-77
2021/03/24 00:50:12;;;;;;;67.70;32.90;;;;;;;;;;5048870;28;20182;-76
2021/03/24 00:52:38;;;;;;;61.13;31.87;;;;;;;;;;5031977;28;20322;-77
2021/03/24 00:55:05;;;;;;;62.53;31.00;;;;;;;;;;5031407;28;20194;-77
2021/03/24 00:57:31;;;;;;;62.13;31.80;;;;;;;;;;5048522;28;20213;-76
2021/03/24 00:59:56;;;;;;;66.37;32.77;;;;;;;;;;5032645;28;20182;-77
2021/03/24 01:02:23;;;;;;;63.10;31.17;;;;;;;;;;5031489;28;20379;-77
2021/03/24 01:04:48;;;;;;;64.93;31.80;;;;;;;;;;5047743;28;20210;-75
2021/03/24 01:07:15;;;;;;;59.80;30.20;;;;;;;;;;5031039;28;20181;-76
2021/03/24 01:09:41;;;;;;;64.13;30.60;;;;;;;;;;5030826;28;20182;-77
2021/03/24 01:12:07;;;;;;;63.10;31.57;;;;;;;;;;5047302;28;20675;-76
2021/03/24 01:14:33;;;;;;;59.40;30.57;;;;;;;;;;5030703;28;20182;-77
2021/03/24 01:16:59;;;;;;;60.67;29.20;;;;;;;;;;5031968;28;20695;-75
2021/03/24 01:19:25;;;;;;;59.63;30.53;;;;;;;;;;5031983;28;20425;-76
2021/03/24 01:21:51;;;;;;;61.30;30.63;;;;;;;;;;5047450;28;20182;-76
2021/03/24 01:24:17;;;;;;;57.97;29.53;;;;;;;;;;5047368;28;20557;-77
2021/03/24 01:26:43;;;;;;;57.63;29.50;;;;;;;;;;5030727;28;20296;-76
2021/03/24 01:29:09;;;;;;;60.90;30.47;;;;;;;;;;5030435;28;20642;-76
2021/03/24 01:31:35;;;;;;;60.23;30.13;;;;;;;;;;5047314;28;20199;-76
2021/03/24 01:34:01;;;;;;;59.27;29.00;;;;;;;;;;5030591;28;20227;-76
2021/03/24 01:36:27;;;;;;;57.43;29.10;;;;;;;;;;5047742;28;20186;-76
2021/03/24 01:38:54;;;;;;;61.07;29.80;;;;;;;;;;5030518;28;20242;-75
2021/03/24 01:41:20;;;;;;;52.87;28.00;;;;;;;;;;5047304;28;20191;-76
2021/03/24 01:43:46;;;;;;;62.87;29.40;;;;;;;;;;5030533;28;20248;-76
2021/03/24 01:46:19;;;;;;;53.87;27.63;;;;;;;;;;5047210;28;20300;-76
2021/03/24 01:48:58;;;;;;;55.37;27.90;;;;;;;;;;5030642;28;20640;-76
2021/03/24 01:51:29;;;;;;;58.63;28.73;;;;;;;;;;5047450;28;20256;-76
2021/03/24 01:53:55;;;;;;;55.87;28.30;;;;;;;;;;5030623;28;20198;-75
2021/03/24 01:56:21;;;;;;;57.27;29.03;;;;;;;;;;5047199;28;20192;-75
2021/03/24 01:58:47;;;;;;;50.73;27.77;;;;;;;;;;5047195;28;20563;-75
2021/03/24 02:01:14;;;;;;;49.40;25.60;;;;;;;;;;5047129;28;20190;-76
2021/03/24 02:03:41;;;;;;;49.80;26.20;;;;;;;;;;5030566;28;20204;-75
2021/03/24 02:06:09;;;;;;;56.10;28.43;;;;;;;;;;5048373;28;20270;-76
2021/03/24 02:08:37;;;;;;;53.13;27.30;;;;;;;;;;5050684;28;20689;-76
2021/03/24 02:11:12;;;;;;;55.00;27.93;;;;;;;;;;5034244;28;20179;-76
2021/03/24 02:13:43;;;;;;;59.07;29.50;;;;;;;;;;5035259;28;20218;-76
2021/03/24 02:16:14;;;;;;;60.63;28.63;;;;;;;;;;5050812;28;20188;-76
2021/03/24 02:18:40;;;;;;;56.17;28.60;;;;;;;;;;5050950;28;20244;-75
2021/03/24 02:21:10;;;;;;;55.77;28.10;;;;;;;;;;5034145;28;20186;-75
2021/03/24 02:23:36;;;;;;;60.37;29.70;;;;;;;;;;5034052;28;20285;-76
2021/03/24 02:26:17;;;;;;;56.47;27.27;;;;;;;;;;5035467;28;20300;-75
2021/03/24 02:28:43;;;;;;;55.87;27.63;;;;;;;;;;5033709;28;20188;-76
2021/03/24 02:31:09;;;;;;;57.47;27.97;;;;;;;;;;5050527;28;20647;-76
2021/03/24 02:33:36;;;;;;;60.80;29.43;;;;;;;;;;5034936;28;20214;-76
2021/03/24 02:36:03;;;;;;;61.63;29.47;;;;;;;;;;5033877;28;20245;-76
2021/03/24 02:38:29;;;;;;;57.20;29.10;;;;;;;;;;5034937;28;20183;-76
2021/03/24 02:40:55;;;;;;;61.90;29.80;;;;;;;;;;5050459;28;20626;-77
2021/03/24 02:43:21;;;;;;;58.77;29.47;;;;;;;;;;5033761;28;20210;-76
2021/03/24 02:45:47;;;;;;;60.43;30.13;;;;;;;;;;5033893;28;20216;-76
2021/03/24 02:48:14;;;;;;;59.53;30.83;;;;;;;;;;5050536;28;20578;-76
2021/03/24 02:50:41;;;;;;;58.90;27.93;;;;;;;;;;5034812;28;20197;-77
2021/03/24 02:53:07;;;;;;;61.67;29.23;;;;;;;;;;5051238;28;20297;-77
2021/03/24 02:55:33;;;;;;;62.93;30.27;;;;;;;;;;5050701;28;20182;-77
2021/03/24 02:57:59;;;;;;;60.13;29.97;;;;;;;;;;5051359;28;20197;-77
2021/03/24 03:00:25;;;;;;;59.23;30.47;;;;;;;;;;5034707;28;20269;-77
2021/03/24 03:03:02;;;;;;;55.10;29.03;;;;;;;;;;5034720;28;20211;-77
2021/03/24 03:05:30;;;;;;;58.37;28.60;;;;;;;;;;5034841;28;20669;-77
2021/03/24 03:08:10;;;;;;;57.70;30.07;;;;;;;;;;5050991;28;20650;-77
2021/03/24 03:10:55;;;;;;;59.93;29.77;;;;;;;;;;5033022;28;20174;-76
2021/03/24 03:13:22;;;;;;;62.87;31.03;;;;;;;;;;5034525;28;20201;-77
2021/03/24 03:15:59;;;;;;;60.27;29.70;;;;;;;;;;5034213;28;20735;-77
2021/03/24 03:18:27;;;;;;;57.50;29.33;;;;;;;;;;5049326;28;20319;-77
2021/03/24 03:20:54;;;;;;;54.77;29.00;;;;;;;;;;5050089;28;20190;-77
2021/03/24 03:23:21;;;;;;;56.00;28.33;;;;;;;;;;5033282;28;20206;-76
2021/03/24 03:25:49;;;;;;;57.87;28.40;;;;;;;;;;5033148;28;20206;-76
2021/03/24 03:28:17;;;;;;;57.53;29.37;;;;;;;;;;5033101;28;20175;-76
2021/03/24 03:30:43;;;;;;;54.73;27.80;;;;;;;;;;5050013;28;20291;-77
2021/03/24 03:33:10;;;;;;;57.87;29.47;;;;;;;;;;5049756;28;20217;-77
2021/03/24 03:35:36;;;;;;;56.70;29.47;;;;;;;;;;5033125;28;20635;-76
2021/03/24 03:38:02;;;;;;;58.37;29.07;;;;;;;;;;5033278;28;20186;-77
2021/03/24 03:40:29;;;;;;;56.67;28.07;;;;;;;;;;5049507;28;20187;-76
2021/03/24 03:42:55;;;;;;;59.57;28.33;;;;;;;;;;5033116;28;20211;-76
2021/03/24 03:45:21;;;;;;;55.20;27.57;;;;;;;;;;5032976;28;20209;-77
2021/03/24 03:47:47;;;;;;;55.17;27.20;;;;;;;;;;5033063;28;20640;-77
2021/03/24 03:50:14;;;;;;;57.67;28.70;;;;;;;;;;5032810;28;20178;-76
2021/03/24 03:52:43;;;;;;;56.60;27.60;;;;;;;;;;5049635;28;20210;-76
2021/03/24 03:55:16;;;;;;;53.17;27.07;;;;;;;;;;5032886;28;20182;-77
2021/03/24 03:57:53;;;;;;;55.87;29.33;;;;;;;;;;5032450;28;20201;-76
2021/03/24 04:00:26;;;;;;;55.90;27.40;;;;;;;;;;5049126;28;20677;-76
2021/03/24 04:03:12;;;;;;;51.57;27.53;;;;;;;;;;5049569;28;20695;-77
2021/03/24 04:05:45;;;;;;;51.33;26.60;;;;;;;;;;5048679;28;20207;-76
2021/03/24 04:08:14;;;;;;;56.63;27.33;;;;;;;;;;5032152;28;20195;-76
2021/03/24 04:10:41;;;;;;;58.07;28.17;;;;;;;;;;5048418;28;20189;-76
2021/03/24 04:13:07;;;;;;;51.97;26.93;;;;;;;;;;5033070;28;20217;-76
2021/03/24 04:15:33;;;;;;;50.17;27.17;;;;;;;;;;5031998;28;20175;-75
2021/03/24 04:18:03;;;;;;;56.10;28.27;;;;;;;;;;5048308;28;20183;-76
2021/03/24 04:20:30;;;;;;;53.00;27.30;;;;;;;;;;5048339;28;20182;-76
2021/03/24 04:22:56;;;;;;;51.57;27.57;;;;;;;;;;5031768;28;20205;-76
2021/03/24 04:25:24;;;;;;;55.40;27.87;;;;;;;;;;5048650;28;20672;-76
2021/03/24 04:27:50;;;;;;;53.27;27.53;;;;;;;;;;5048344;28;20182;-76
2021/03/24 04:30:19;;;;;;;54.77;27.93;;;;;;;;;;5047222;28;20659;-75
2021/03/24 04:35:13;;;;;;;53.00;28.03;;;;;;;;;;5014146;28;20223;-84
2021/03/24 04:37:43;;;;;;;58.10;27.50;;;;;;;;;;4998224;28;20181;-85
2021/03/24 04:40:26;;;;;;;51.33;26.47;;;;;;;;;;4999133;28;20236;-84
2021/03/24 04:42:58;;;;;;;55.73;27.67;;;;;;;;;;4999147;28;20193;-84
2021/03/24 04:45:35;;;;;;;51.97;26.90;;;;;;;;;;4998623;28;20225;-85
2021/03/24 04:48:02;;;;;;;52.80;27.30;;;;;;;;;;4998848;28;20182;-84
2021/03/24 04:50:30;;;;;;;50.80;26.40;;;;;;;;;;5017100;28;20271;-86
2021/03/24 04:52:56;;;;;;;62.83;30.57;;;;;;;;;;4999026;28;20256;-84
2021/03/24 04:55:22;;;;;;;56.03;28.10;;;;;;;;;;4998275;28;20702;-85
2021/03/24 04:57:48;;;;;;;54.23;27.70;;;;;;;;;;4998150;28;20230;-85
2021/03/24 05:00:24;;;;;;;51.07;27.70;;;;;;;;;;5021740;28;20197;-85
2021/03/24 05:02:51;;;;;;;53.27;26.97;;;;;;;;;;5029039;28;20186;-84
2021/03/24 05:05:17;;;;;;;54.53;28.73;;;;;;;;;;5017435;28;20212;-82
2021/03/24 05:07:52;;;;;;;61.57;29.17;;;;;;;;;;5033339;28;20552;-85
2021/03/24 05:10:19;;;;;;;56.97;28.50;;;;;;;;;;4998630;28;20182;-84
2021/03/24 05:12:48;;;;;;;49.17;26.27;;;;;;;;;;4997168;28;20182;-86
2021/03/24 05:15:18;;;;;;;50.10;27.77;;;;;;;;;;4998964;28;20190;-84
2021/03/24 05:17:44;;;;;;;52.53;26.10;;;;;;;;;;5002778;28;20185;-87
2021/03/24 05:20:10;;;;;;;48.93;25.60;;;;;;;;;;5018875;28;20551;-84
2021/03/24 05:22:40;;;;;;;45.03;25.70;;;;;;;;;;5032200;28;20194;-87
2021/03/24 05:25:07;;;;;;;45.53;25.07;;;;;;;;;;5015937;28;20283;-84
2021/03/24 05:27:34;;;;;;;47.00;26.20;;;;;;;;;;5032752;28;20187;-87
2021/03/24 05:30:03;;;;;;;47.40;25.63;;;;;;;;;;5033391;28;20177;-85
2021/03/24 05:32:34;;;;;;;49.60;25.60;;;;;;;;;;5016858;28;20186;-85
2021/03/24 05:35:00;;;;;;;47.83;25.57;;;;;;;;;;4994964;28;20214;-85
2021/03/24 05:37:27;;;;;;;51.03;26.73;;;;;;;;;;4993613;28;20374;-84
2021/03/24 05:39:53;;;;;;;48.07;26.03;;;;;;;;;;4993639;28;20183;-85
2021/03/24 05:42:25;;;;;;;49.07;26.57;;;;;;;;;;4996797;28;20234;-85
2021/03/24 05:44:56;;;;;;;54.30;27.13;;;;;;;;;;4997649;28;20581;-85
2021/03/24 05:47:22;;;;;;;51.33;26.23;;;;;;;;;;4998527;28;20265;-84
2021/03/24 05:50:00;;;;;;;53.07;27.10;;;;;;;;;;4998037;28;20213;-82
2021/03/24 05:52:33;;;;;;;54.30;27.70;;;;;;;;;;4997346;28;20189;-85
2021/03/24 05:55:13;;;;;;;51.73;27.33;;;;;;;;;;4997570;28;20263;-88
2021/03/24 05:57:47;;;;;;;48.87;28.03;;;;;;;;;;4986800;28;20194;-84
2021/03/24 06:00:25;;;;;;;47.93;26.50;;;;;;;;;;4999852;28;20188;-85
2021/03/24 06:02:59;;;;;;;51.30;28.63;;;;;;;;;;5032586;28;20220;-85
2021/03/24 06:05:32;;;;;;;54.40;27.93;;;;;;;;;;5020024;28;20743;-85
2021/03/24 06:08:08;;;;;;;53.80;27.83;;;;;;;;;;5004059;28;20191;-86
2021/03/24 06:10:46;;;;;;;58.17;29.10;;;;;;;;;;4997670;28;20183;-85
2021/03/24 06:13:18;;;;;;;54.53;29.17;;;;;;;;;;4999496;28;20203;-81
2021/03/24 06:15:47;;;;;;;55.67;29.03;;;;;;;;;;4999011;28;20238;-81
2021/03/24 06:18:23;;;;;;;49.43;27.50;;;;;;;;;;4997449;28;20198;-81
2021/03/24 06:20:49;;;;;;;51.70;28.07;;;;;;;;;;4981303;28;20194;-81
2021/03/24 06:23:15;;;;;;;50.13;29.20;;;;;;;;;;5007312;28;20207;-80
2021/03/24 06:25:41;;;;;;;47.87;27.53;;;;;;;;;;5011425;28;20211;-82
2021/03/24 06:28:10;;;;;;;47.03;27.30;;;;;;;;;;5016539;28;20175;-82
2021/03/24 06:30:39;;;;;;;50.87;27.50;;;;;;;;;;5016893;28;20174;-81
2021/03/24 06:33:17;;;;;;;46.77;26.57;;;;;;;;;;5017960;28;20696;-82
2021/03/24 06:35:43;;;;;;;43.40;26.90;;;;;;;;;;5016185;28;20565;-81
2021/03/24 06:38:15;;;;;;;49.50;28.37;;;;;;;;;;5007682;28;20229;-82
2021/03/24 06:40:41;;;;;;;46.70;27.33;;;;;;;;;;4995824;28;20218;-76
2021/03/24 06:43:19;;;;;;;46.50;27.07;;;;;;;;;;5008341;28;20253;-75
2021/03/24 06:45:45;;;;;;;45.53;26.93;;;;;;;;;;4995772;28;20248;-75
2021/03/24 06:48:17;;;;;;;44.33;27.17;;;;;;;;;;4995873;28;20165;-81
2021/03/24 06:50:59;;;;;;;40.60;25.97;;;;;;;;;;4996345;28;20637;-81
2021/03/24 06:53:51;;;;;;;43.40;27.03;;;;;;;;;;4978799;28;20196;-80
2021/03/24 06:56:29;;;;;;;39.93;25.70;;;;;;;;;;4988861;28;20199;-81
2021/03/24 06:58:55;;;;;;;39.57;25.20;;;;;;;;;;4997962;28;20181;-81
2021/03/24 07:01:24;;;;;;;44.00;26.37;;;;;;;;;;4995517;28;20187;-81
2021/03/24 07:03:59;;;;;;;42.07;25.00;;;;;;;;;;4999814;28;20201;-81
2021/03/24 07:06:44;;;;;;;40.60;25.73;;;;;;;;;;5006904;28;20217;-81
2021/03/24 07:09:30;;;;;;;43.37;27.40;;;;;;;;;;4995154;28;20260;-76
2021/03/24 07:12:15;;;;;;;43.77;25.13;;;;;;;;;;4993859;28;20219;-74
2021/03/24 07:14:59;;;;;;;41.70;25.03;;;;;;;;;;5014729;28;20743;-74
2021/03/24 07:17:28;;;;;;;44.13;25.60;;;;;;;;;;5013731;28;20184;-74
2021/03/24 07:20:03;;;;;;;39.80;24.97;;;;;;;;;;5013320;28;20249;-72
2021/03/24 07:22:48;;;;;;;38.30;25.33;;;;;;;;;;4998284;28;20187;-72
2021/03/24 07:25:33;;;;;;;41.97;26.13;;;;;;;;;;5014640;28;20222;-73
2021/03/24 07:28:08;;;;;;;38.53;26.30;;;;;;;;;;5014897;28;20218;-71
2021/03/24 07:30:33;;;;;;;40.60;25.37;;;;;;;;;;5012089;28;20180;-72
2021/03/24 07:32:59;;;;;;;37.23;24.97;;;;;;;;;;5009150;28;20186;-73
2021/03/24 07:35:25;;;;;;;44.83;24.90;;;;;;;;;;5013667;28;20187;-72
2021/03/24 07:37:58;;;;;;;39.17;25.10;;;;;;;;;;5013845;28;20215;-73
2021/03/24 07:40:23;;;;;;;39.20;24.97;;;;;;;;;;5013643;28;20182;-73
2021/03/24 07:43:10;;;;;;;40.23;24.87;;;;;;;;;;5013625;28;20184;-73
2021/03/24 07:45:36;;;;;;;41.37;24.27;;;;;;;;;;5013705;28;20295;-73
2021/03/24 07:48:10;;;;;;;39.10;24.03;;;;;;;;;;5012613;28;20594;-73
2021/03/24 07:50:39;;;;;;;37.30;24.00;;;;;;;;;;5011781;28;20277;-72
2021/03/24 07:53:14;;;;;;;38.13;24.50;;;;;;;;;;5011575;28;20570;-72
2021/03/24 07:55:41;;;;;;;45.70;25.50;;;;;;;;;;5006502;28;20187;-74
2021/03/24 07:58:16;;;;;;;40.10;24.80;;;;;;;;;;4997478;28;20214;-76
2021/03/24 08:01:05;;;;;;;44.80;25.30;;;;;;;;;;4996500;28;20220;-77
2021/03/24 08:03:32;;;;;;;37.60;23.97;;;;;;;;;;5013119;28;20212;-76
2021/03/24 08:06:16;;;;;;;40.23;25.03;;;;;;;;;;4996385;28;20210;-76
2021/03/24 08:08:48;;;;;;;40.60;24.53;;;;;;;;;;5014348;28;20657;-75
2021/03/24 08:11:23;;;;;;;41.57;25.47;;;;;;;;;;5012627;28;20183;-76
2021/03/24 08:14:08;;;;;;;37.47;24.10;;;;;;;;;;5013599;28;20197;-78
2021/03/24 08:16:37;;;;;;;41.40;25.13;;;;;;;;;;5014994;28;20555;-78
2021/03/24 08:19:15;;;;;;;41.70;22.50;;;;;;;;;;5011450;28;20231;-80
2021/03/24 08:21:41;;;;;;;39.37;24.80;;;;;;;;;;5010624;28;20215;-79
2021/03/24 08:24:36;;;;;;;43.40;24.43;;;;;;;;;;5014344;28;20205;-80
2021/03/24 08:27:03;;;;;;;42.10;24.60;;;;;;;;;;4978595;28;20669;-78
2021/03/24 08:29:29;;;;;;;40.83;24.87;;;;;;;;;;5010975;28;20256;-79
2021/03/24 08:31:58;;;;;;;42.97;25.63;;;;;;;;;;5003374;28;20216;-78
2021/03/24 08:34:33;;;;;;;41.93;25.30;;;;;;;;;;5011192;28;20217;-79
2021/03/24 08:37:18;;;;;;;37.23;24.40;;;;;;;;;;4992891;28;20196;-80
2021/03/24 08:40:06;;;;;;;41.13;25.20;;;;;;;;;;5003181;28;20178;-71
2021/03/24 08:42:36;;;;;;;40.63;25.80;;;;;;;;;;4996090;28;20259;-77
2021/03/24 08:45:08;;;;;;;42.13;25.73;;;;;;;;;;4996566;28;20261;-77
2021/03/24 08:47:40;;;;;;;42.10;26.33;;;;;;;;;;5012858;28;20177;-76
2021/03/24 08:50:11;;;;;;;44.23;26.10;;;;;;;;;;4996497;28;20713;-75
2021/03/24 08:52:40;;;;;;;41.33;25.57;;;;;;;;;;5013273;28;20227;-76
2021/03/24 08:55:15;;;;;;;44.07;27.13;;;;;;;;;;4993034;28;20298;-76
2021/03/24 08:57:50;;;;;;;41.57;26.57;;;;;;;;;;4997734;28;20190;-77
2021/03/24 09:00:28;;;;;;;46.43;26.77;;;;;;;;;;5013177;28;20216;-79
2021/03/24 09:03:00;;;;;;;42.43;27.00;;;;;;;;;;5013123;28;20714;-75
2021/03/24 09:05:30;;;;;;;41.80;27.43;;;;;;;;;;5012321;28;20198;-78
2021/03/24 09:08:15;;;;;;;42.17;26.40;;;;;;;;;;4993589;28;20181;-72
2021/03/24 09:10:47;;;;;;;49.17;28.57;;;;;;;;;;5001856;28;20195;-71
2021/03/24 09:13:16;;;;;;;43.10;27.20;;;;;;;;;;4992900;28;20835;-71
2021/03/24 09:15:59;;;;;;;48.97;29.20;;;;;;;;;;4991146;28;20270;-70
2021/03/24 09:18:36;;;;;;;44.83;28.00;;;;;;;;;;4991644;28;20176;-73
2021/03/24 09:21:11;;;;;;;43.30;27.87;;;;;;;;;;5005567;28;20197;-73
2021/03/24 09:23:36;;;;;;;47.13;29.90;;;;;;;;;;5007686;28;20218;-73
2021/03/24 09:26:21;;;;;;;43.67;28.40;;;;;;;;;;5005264;28;20203;-72
2021/03/24 09:28:56;;;;;;;47.67;29.53;;;;;;;;;;5011171;28;20184;-73
2021/03/24 09:31:41;;;;;;;48.63;28.43;;;;;;;;;;5003730;28;20206;-71
2021/03/24 09:34:25;;;;;;;47.00;28.37;;;;;;;;;;5011932;28;20233;-71
2021/03/24 09:36:54;;;;;;;46.00;28.67;;;;;;;;;;5009712;28;20195;-72
2021/03/24 09:39:44;;;;;;;45.57;29.13;;;;;;;;;;5000732;28;20645;-73
2021/03/24 09:42:25;;;;;;;46.67;29.37;;;;;;;;;;5006385;28;20204;-74
2021/03/24 09:44:51;;;;;;;47.30;28.50;;;;;;;;;;5012084;28;20199;-73
2021/03/24 09:47:37;;;;;;;48.63;30.90;;;;;;;;;;5012191;28;20184;-73
2021/03/24 09:50:06;;;;;;;50.40;31.40;;;;;;;;;;4991134;28;20542;-73
2021/03/24 09:52:32;;;;;;;52.80;31.47;;;;;;;;;;4999984;28;20179;-74
2021/03/24 09:55:04;;;;;;;52.07;31.60;;;;;;;;;;5009333;28;20202;-73
2021/03/24 09:57:42;;;;;;;51.73;30.90;;;;;;;;;;5011705;28;20234;-73
2021/03/24 10:00:10;;;;;;;58.77;31.90;;;;;;;;;;5011046;28;20658;-72
2021/03/24 10:02:37;;;;;;;57.30;32.50;;;;;;;;;;4975052;28;20189;-73
2021/03/24 10:05:04;;;;;;;48.83;30.97;;;;;;;;;;4990978;28;20204;-73
2021/03/24 10:07:31;;;;;;;50.73;31.03;;;;;;;;;;4975062;28;20177;-73
2021/03/24 10:10:03;;;;;;;49.20;32.17;;;;;;;;;;4990930;28;20201;-74
2021/03/24 10:12:29;;;;;;;51.40;32.30;;;;;;;;;;5001785;28;20176;-76
2021/03/24 10:15:04;;;;;;;50.90;31.13;;;;;;;;;;5003667;28;20610;-76
2021/03/24 10:17:41;;;;;;;51.93;31.63;;;;;;;;;;4999069;28;20176;-74
2021/03/24 10:20:10;;;;;;;51.17;32.37;;;;;;;;;;4991016;28;20264;-73
2021/03/24 10:22:37;;;;;;;47.60;32.00;;;;;;;;;;4993990;28;20172;-74
2021/03/24 10:25:08;;;;;;;48.80;31.10;;;;;;;;;;5001645;28;20207;-74
2021/03/24 10:27:34;;;;;;;48.37;31.10;;;;;;;;;;5012379;28;20222;-74
2021/03/24 10:30:03;;;;;;;50.13;30.23;;;;;;;;;;5015387;28;20180;-74
2021/03/24 10:32:48;;;;;;;48.90;32.50;;;;;;;;;;5014942;28;20263;-78
2021/03/24 10:35:23;;;;;;;49.60;30.57;;;;;;;;;;5166356;23;20237;-76
2021/03/24 10:38:08;;;;;;;47.73;31.20;;;;;;;;;;5000561;28;20174;-77
2021/03/24 10:40:34;;;;;;;49.73;30.17;;;;;;;;;;5035871;28;20163;-78
2021/03/24 10:43:21;;;;;;;48.37;30.60;;;;;;;;;;5002439;28;20171;-78
2021/03/24 10:45:51;;;;;;;45.20;27.77;;;;;;;;;;4993561;28;20208;-78
2021/03/24 10:48:17;;;;;;;49.80;29.27;;;;;;;;;;4964038;28;20223;-79
2021/03/24 10:50:43;;;;;;;44.97;28.30;;;;;;;;;;4997574;28;20181;-79
2021/03/24 10:53:12;;;;;;;44.10;28.83;;;;;;;;;;4963789;28;20637;-79
2021/03/24 10:55:38;;;;;;;48.90;29.27;;;;;;;;;;4963773;28;20207;-77
2021/03/24 10:58:04;;;;;;;51.03;30.00;;;;;;;;;;4976293;28;20184;-78
2021/03/24 11:00:34;;;;;;;45.37;27.83;;;;;;;;;;5031871;28;20195;-78
2021/03/24 11:03:18;;;;;;;46.20;29.73;;;;;;;;;;5032101;28;20176;-78
2021/03/24 11:06:03;;;;;;;44.73;29.03;;;;;;;;;;5031954;28;20298;-78
2021/03/24 11:08:38;;;;;;;44.87;28.67;;;;;;;;;;5016880;28;20175;-78
2021/03/24 11:11:20;;;;;;;45.60;28.07;;;;;;;;;;5031752;28;20262;-78
2021/03/24 11:13:54;;;;;;;43.80;28.33;;;;;;;;;;5031374;28;20656;-77
2021/03/24 11:16:38;;;;;;;42.90;27.80;;;;;;;;;;5015255;28;20190;-77
2021/03/24 11:19:11;;;;;;;44.07;27.80;;;;;;;;;;5031463;28;20210;-77
2021/03/24 11:21:37;;;;;;;46.47;28.00;;;;;;;;;;5030988;28;20183;-79
2021/03/24 11:24:09;;;;;;;44.77;27.77;;;;;;;;;;5031050;28;20212;-77
2021/03/24 11:26:45;;;;;;;45.20;27.17;;;;;;;;;;5015556;28;20203;-78
2021/03/24 11:29:11;;;;;;;44.17;28.23;;;;;;;;;;5030848;28;20171;-78
2021/03/24 11:31:46;;;;;;;44.13;27.80;;;;;;;;;;5014604;28;20184;-79
2021/03/24 11:34:13;;;;;;;43.53;27.97;;;;;;;;;;5015526;28;20237;-78
2021/03/24 11:36:46;;;;;;;46.90;28.53;;;;;;;;;;4997803;28;20186;-77
2021/03/24 11:39:21;;;;;;;46.33;28.60;;;;;;;;;;4997364;28;20186;-79
2021/03/24 11:41:47;;;;;;;46.53;28.67;;;;;;;;;;4982060;28;20214;-78
2021/03/24 11:44:20;;;;;;;52.53;29.13;;;;;;;;;;4997990;28;20235;-78
2021/03/24 11:46:46;;;;;;;46.80;27.53;;;;;;;;;;4979306;28;20207;-76
2021/03/24 11:49:16;;;;;;;47.67;28.93;;;;;;;;;;4995837;28;20663;-77
2021/03/24 11:51:44;;;;;;;42.93;28.27;;;;;;;;;;4996124;28;20179;-76
2021/03/24 11:54:14;;;;;;;47.73;27.77;;;;;;;;;;4995915;28;20726;-77
2021/03/24 11:56:59;;;;;;;46.03;25.87;;;;;;;;;;4996014;28;20195;-77
2021/03/24 11:59:28;;;;;;;43.83;27.83;;;;;;;;;;5013200;28;20718;-78
2021/03/24 12:01:58;;;;;;;47.30;27.47;;;;;;;;;;4995808;28;20733;-77
2021/03/24 12:04:24;;;;;;;46.93;27.83;;;;;;;;;;4996019;28;20230;-76
2021/03/24 12:06:57;;;;;;;47.67;28.30;;;;;;;;;;5013187;28;20242;-77
2021/03/24 12:09:24;;;;;;;43.63;27.73;;;;;;;;;;4995681;28;20211;-77
2021/03/24 12:11:50;;;;;;;47.87;27.67;;;;;;;;;;4979448;28;20175;-77
2021/03/24 12:14:19;;;;;;;48.23;27.37;;;;;;;;;;4996630;28;20635;-77
2021/03/24 12:16:47;;;;;;;49.17;27.10;;;;;;;;;;5013392;28;20207;-76
2021/03/24 12:19:30;;;;;;;48.77;27.80;;;;;;;;;;4995714;28;20175;-77
2021/03/24 12:21:56;;;;;;;49.60;27.50;;;;;;;;;;4979609;28;20686;-76
2021/03/24 12:24:25;;;;;;;54.93;28.87;;;;;;;;;;4979484;28;20228;-77
2021/03/24 12:26:51;;;;;;;49.57;27.43;;;;;;;;;;5012029;28;20637;-77
2021/03/24 12:29:24;;;;;;;54.70;27.37;;;;;;;;;;5012170;28;20191;-77
2021/03/24 12:31:51;;;;;;;46.53;26.83;;;;;;;;;;4995735;28;20226;-78
2021/03/24 12:34:18;;;;;;;51.03;26.17;;;;;;;;;;4995529;28;20226;-77
2021/03/24 12:36:53;;;;;;;43.80;24.57;;;;;;;;;;4994944;28;20638;-77
2021/03/24 12:39:39;;;;;;;45.27;25.60;;;;;;;;;;5011674;28;20183;-77
2021/03/24 12:42:09;;;;;;;49.70;27.17;;;;;;;;;;4995697;28;20218;-77
2021/03/24 12:44:39;;;;;;;50.90;26.43;;;;;;;;;;4995478;28;20203;-77
2021/03/24 12:47:06;;;;;;;45.77;25.00;;;;;;;;;;4979395;28;20203;-78
2021/03/24 12:49:33;;;;;;;47.87;26.57;;;;;;;;;;4996310;28;20262;-78
2021/03/24 12:52:17;;;;;;;43.97;25.83;;;;;;;;;;4979109;28;20257;-78
2021/03/24 12:54:43;;;;;;;52.77;25.97;;;;;;;;;;4995902;28;20195;-77
2021/03/24 12:57:13;;;;;;;45.83;26.97;;;;;;;;;;4996103;28;20195;-78
2021/03/24 12:59:48;;;;;;;47.13;25.10;;;;;;;;;;4995348;28;20666;-78
2021/03/24 13:02:33;;;;;;;48.00;26.63;;;;;;;;;;5001261;28;20187;-77
2021/03/24 13:04:59;;;;;;;45.83;25.20;;;;;;;;;;4994753;28;20686;-77
2021/03/24 13:07:25;;;;;;;45.77;24.77;;;;;;;;;;5013126;28;20259;-78
2021/03/24 13:10:06;;;;;;;42.30;22.47;;;;;;;;;;4995058;28;20186;-78
2021/03/24 13:12:42;;;;;;;40.67;22.33;;;;;;;;;;4995579;28;20550;-78
2021/03/24 13:15:18;;;;;;;39.17;22.37;;;;;;;;;;4995784;28;20206;-79
2021/03/24 13:17:44;;;;;;;40.83;22.33;;;;;;;;;;4979280;28;20193;-78
2021/03/24 13:20:13;;;;;;;37.53;22.10;;;;;;;;;;5000124;28;20180;-77
2021/03/24 13:22:42;;;;;;;43.10;23.70;;;;;;;;;;5012760;28;20183;-77
2021/03/24 13:25:11;;;;;;;39.67;21.33;;;;;;;;;;5012824;28;20231;-78
2021/03/24 13:27:47;;;;;;;35.90;19.93;;;;;;;;;;5013265;28;20733;-79
2021/03/24 13:30:16;;;;;;;32.83;20.03;;;;;;;;;;4994430;28;20175;-77
2021/03/24 13:32:49;;;;;;;38.13;20.67;;;;;;;;;;5012001;28;20176;-76
2021/03/24 13:35:16;;;;;;;33.90;19.47;;;;;;;;;;4978557;28;20215;-76
2021/03/24 13:37:42;;;;;;;37.77;19.93;;;;;;;;;;4978037;28;20652;-77
2021/03/24 13:40:08;;;;;;;36.17;20.17;;;;;;;;;;4994302;28;20184;-76
2021/03/24 13:42:39;;;;;;;37.17;20.83;;;;;;;;;;5011916;28;20545;-77
2021/03/24 13:45:05;;;;;;;37.40;20.70;;;;;;;;;;4995139;28;20206;-81
2021/03/24 13:47:41;;;;;;;38.20;20.00;;;;;;;;;;5013016;28;20171;-77
2021/03/24 13:50:07;;;;;;;40.77;21.23;;;;;;;;;;4995329;28;20234;-78
2021/03/24 13:52:36;;;;;;;36.83;19.67;;;;;;;;;;5012019;28;20187;-75
2021/03/24 13:55:11;;;;;;;36.97;20.20;;;;;;;;;;4994264;28;20195;-76
2021/03/24 13:57:56;;;;;;;36.17;20.10;;;;;;;;;;5012138;28;20179;-76
2021/03/24 14:00:25;;;;;;;35.20;19.40;;;;;;;;;;5011858;28;20259;-76
2021/03/24 14:03:21;;;;;;;33.77;20.03;;;;;;;;;;4992883;28;20186;-77
2021/03/24 14:05:49;;;;;;;33.43;17.30;;;;;;;;;;4937025;28;20775;-77
2021/03/24 14:08:20;;;;;;;33.80;19.53;;;;;;;;;;4987698;28;20546;-77
2021/03/24 14:11:06;;;;;;;36.57;18.87;;;;;;;;;;4997870;28;20645;-77
2021/03/24 14:13:41;;;;;;;34.30;20.33;;;;;;;;;;4990990;28;20650;-76
2021/03/24 14:16:22;;;;;;;33.73;19.00;;;;;;;;;;4998235;28;20191;-76
2021/03/24 14:18:49;;;;;;;34.33;19.40;;;;;;;;;;4981736;28;20211;-76
2021/03/24 14:21:34;;;;;;;39.17;19.37;;;;;;;;;;4997891;28;20188;-77
2021/03/24 14:24:09;;;;;;;34.40;19.07;;;;;;;;;;4981605;28;20302;-77
2021/03/24 14:26:35;;;;;;;33.87;18.53;;;;;;;;;;4997714;28;20306;-77
2021/03/24 14:29:13;;;;;;;31.40;17.93;;;;;;;;;;5015363;28;20680;-77
2021/03/24 14:31:39;;;;;;;30.93;17.60;;;;;;;;;;4997742;28;20237;-77
2021/03/24 14:34:18;;;;;;;29.03;16.93;;;;;;;;;;4997675;28;20206;-77
2021/03/24 14:36:45;;;;;;;33.47;16.37;;;;;;;;;;4997705;28;20226;-77
2021/03/24 14:39:17;;;;;;;27.03;16.37;;;;;;;;;;4997750;28;20715;-76
2021/03/24 14:41:46;;;;;;;31.27;17.33;;;;;;;;;;4997594;28;20191;-77